Terminal Aerodrome Forecast
Issued by NWS

Home | Current Version | Previous Version | Text Only | Print | Product List | Glossary On
Versions: 1 2 3 4 5 6 7 8 9 10 11 12 13 14 15 16 17 18 19 20 21 22 23 24 25 26
858
FTUS46 KSEW 031402 AAA
TAFSEA
TAF AMD
KSEA 031402Z 0314/0418 19010KT P6SM VCSH BKN015 BKN025
     FM031600 19010KT P6SM VCSH BKN022 OVC040
      TEMPO 0320/0324 SCT022 BKN040
     FM040300 20011KT P6SM -RA BKN022 OVC035=

USA.gov is the U.S. government's official web portal to all federal, state and local government web resources and services.